createdAt,value
2023-01-30T00:00:07.305Z,100289.63
2023-01-30T00:02:35.318Z,100285.56
2023-01-30T00:05:03.523Z,100285.92
2023-01-30T00:07:31.508Z,100288.02
2023-01-30T00:10:02.317Z,100279.91
2023-01-30T00:12:30.658Z,100273.27
2023-01-30T00:14:58.519Z,100273.39
2023-01-30T00:17:29.168Z,100274.80
2023-01-30T00:19:57.465Z,100275.98
2023-01-30T00:22:25.652Z,100277.42
2023-01-30T00:24:55.542Z,100276.38
2023-01-30T00:27:23.804Z,100268.13
2023-01-30T00:30:02.207Z,100263.77
2023-01-30T00:32:32.302Z,100259.80
2023-01-30T00:35:00.380Z,100262.19
2023-01-30T00:37:30.869Z,100258.31
2023-01-30T00:39:58.902Z,100256.23
2023-01-30T00:42:47.263Z,100255.04
2023-01-30T00:45:33.952Z,100254.94
2023-01-30T00:48:01.911Z,100251.41
2023-01-30T00:50:42.587Z,100246.46
2023-01-30T00:53:15.599Z,100244.92
2023-01-30T00:55:45.102Z,100242.30
2023-01-30T00:58:13.437Z,100240.51
2023-01-30T01:00:42.974Z,100240.62
2023-01-30T01:03:11.343Z,100236.66
2023-01-30T01:05:39.468Z,100227.95
2023-01-30T01:08:07.535Z,100226.65
2023-01-30T01:10:35.667Z,100222.43
2023-01-30T01:13:04.064Z,100219.19
2023-01-30T01:15:34.438Z,100216.79
2023-01-30T01:18:02.434Z,100215.56
2023-01-30T01:20:31.731Z,100211.87
2023-01-30T01:22:59.819Z,100203.09
2023-01-30T01:25:27.750Z,100204.47
2023-01-30T01:27:55.918Z,100202.02
2023-01-30T01:30:25.118Z,100199.71
2023-01-30T01:32:53.063Z,100194.64
2023-01-30T01:35:20.951Z,100193.11
2023-01-30T01:37:48.970Z,100193.77
2023-01-30T01:40:37.387Z,100188.26
2023-01-30T01:43:18.983Z,100189.38
2023-01-30T01:45:48.601Z,100194.39
2023-01-30T01:48:21.204Z,100188.91
2023-01-30T01:51:17.374Z,100187.02
2023-01-30T01:53:50.429Z,100186.86
2023-01-30T01:56:18.556Z,100184.30
2023-01-30T01:58:49.690Z,100185.73
2023-01-30T02:01:19.148Z,100185.46
2023-01-30T02:03:50.733Z,100182.64
2023-01-30T02:06:18.653Z,100186.77
2023-01-30T02:08:55.484Z,100178.52
2023-01-30T02:11:36.368Z,100174.80
2023-01-30T02:14:05.966Z,100172.77
2023-01-30T02:16:33.942Z,100171.77
2023-01-30T02:19:06.832Z,100168.39
2023-01-30T02:21:40.966Z,100172.59
2023-01-30T02:24:31.636Z,100166.68
2023-01-30T02:27:37.720Z,100163.38
2023-01-30T02:30:16.332Z,100159.27
2023-01-30T02:32:48.051Z,100151.27
2023-01-30T02:35:55.878Z,100144.64
2023-01-30T02:38:32.013Z,100139.36
2023-01-30T02:41:37.255Z,100141.73
2023-01-30T02:44:12.881Z,100134.06
2023-01-30T02:47:08.147Z,100132.14
2023-01-30T02:49:47.270Z,100126.40
2023-01-30T02:52:16.799Z,100122.65
2023-01-30T02:54:45.341Z,100118.23
2023-01-30T02:57:23.889Z,100115.35
2023-01-30T02:59:58.759Z,100112.89
2023-01-30T03:02:37.109Z,100111.92
2023-01-30T03:05:47.784Z,100110.61
2023-01-30T03:08:41.809Z,100111.88
2023-01-30T03:11:09.794Z,100106.29
2023-01-30T03:13:38.141Z,100105.92
2023-01-30T03:16:18.538Z,100093.30
2023-01-30T03:18:47.246Z,100096.61
2023-01-30T03:21:17.325Z,100093.65
2023-01-30T03:23:46.939Z,100091.33
2023-01-30T03:26:18.862Z,100093.35
2023-01-30T03:28:48.250Z,100094.38
2023-01-30T03:31:16.316Z,100091.08
2023-01-30T03:33:44.524Z,100083.67
2023-01-30T03:36:13.233Z,100081.92
2023-01-30T03:38:41.326Z,100085.88
2023-01-30T03:41:09.207Z,100085.76
2023-01-30T06:25:50.927Z,99953.80
2023-01-30T06:28:19.139Z,99950.77
2023-01-30T06:30:48.708Z,99949.79
2023-01-30T06:33:17.098Z,99949.02
2023-01-30T06:35:47.552Z,99946.02
2023-01-30T06:38:15.474Z,99942.67
2023-01-30T06:40:47.605Z,99940.48
2023-01-30T06:43:16.968Z,99936.42
2023-01-30T06:45:44.781Z,99935.88
2023-01-30T06:48:12.699Z,99935.64
2023-01-30T06:50:40.689Z,99929.15
2023-01-30T06:53:08.681Z,99923.65
2023-01-30T06:55:38.395Z,99925.58
2023-01-30T06:58:08.026Z,99930.98
2023-01-30T07:00:36.579Z,99928.43
2023-01-30T07:03:04.480Z,99925.33
2023-01-30T07:05:33.801Z,99928.83
2023-01-30T07:08:03.539Z,99931.86
2023-01-30T07:10:36.022Z,99927.68
2023-01-30T07:13:04.072Z,99930.85
2023-01-30T07:15:32.498Z,99927.33
2023-01-30T07:18:03.498Z,99923.38
2023-01-30T07:20:35.149Z,99917.23
2023-01-30T07:23:03.082Z,99917.61
2023-01-30T07:25:31.053Z,99913.25
2023-01-30T07:28:00.584Z,99910.25
2023-01-30T07:30:30.565Z,99907.27
2023-01-30T07:32:59.585Z,99903.52
2023-01-30T07:35:28.823Z,99900.02
2023-01-30T07:37:56.787Z,99902.67
2023-01-30T07:40:24.789Z,99899.20
2023-01-30T07:43:03.809Z,99893.16
2023-01-30T07:45:46.518Z,99891.75
2023-01-30T07:48:17.031Z,99888.55
2023-01-30T07:50:47.103Z,99886.86
2023-01-30T07:53:16.175Z,99883.55
2023-01-30T07:55:44.138Z,99876.04
2023-01-30T07:58:15.952Z,99868.35
2023-01-30T08:00:44.131Z,99867.11
2023-01-30T08:03:15.272Z,99860.40
2023-01-30T08:05:44.287Z,99860.42
2023-01-30T08:08:13.436Z,99854.31
2023-01-30T08:10:41.561Z,99853.17
2023-01-30T08:13:10.096Z,99844.70
2023-01-30T08:15:38.314Z,99839.65
2023-01-30T08:18:07.990Z,99835.77
2023-01-30T08:20:36.396Z,99836.84
2023-01-30T08:23:04.301Z,99827.43
2023-01-30T08:25:40.821Z,99822.06
2023-01-30T08:28:08.868Z,99819.96
2023-01-30T08:30:36.936Z,99819.59
2023-01-30T08:33:04.891Z,99815.27
2023-01-30T08:35:35.398Z,99812.09
2023-01-30T08:38:07.149Z,99806.60
2023-01-30T08:40:35.989Z,99802.17
2023-01-30T08:43:04.225Z,99805.80
2023-01-30T08:45:32.330Z,99804.73
2023-01-30T08:48:01.175Z,99796.16
2023-01-30T08:50:34.330Z,99791.48
2023-01-30T08:53:06.269Z,99788.73
2023-01-30T08:55:34.741Z,99788.39
2023-01-30T08:58:03.397Z,99782.59
2023-01-30T09:00:32.403Z,99781.23
2023-01-30T09:03:03.007Z,99782.44
2023-01-30T09:05:35.459Z,99777.84
2023-01-30T09:08:03.804Z,99774.63
2023-01-30T09:10:31.981Z,99775.55
2023-01-30T09:13:19.714Z,99777.29
2023-01-30T09:15:47.743Z,99772.48
2023-01-30T09:18:15.819Z,99768.64
2023-01-30T09:20:43.767Z,99760.10
2023-01-30T09:23:11.855Z,99752.84
2023-01-30T09:25:41.823Z,99751.61
2023-01-30T09:28:10.083Z,99749.67
2023-01-30T09:30:38.072Z,99746.10
2023-01-30T09:33:10.091Z,99746.15
2023-01-30T09:35:37.972Z,99735.90
2023-01-30T09:38:05.874Z,99735.25
2023-01-30T09:40:35.044Z,99733.30
2023-01-30T09:43:45.047Z,99728.23
2023-01-30T09:46:25.056Z,99718.45
2023-01-30T09:49:20.041Z,99713.37
2023-01-30T09:51:54.004Z,99705.00
2023-01-30T09:54:26.821Z,99699.13
2023-01-30T09:57:22.579Z,99695.91
2023-01-30T10:00:08.622Z,99694.07
2023-01-30T10:02:57.850Z,99684.52
2023-01-30T10:05:39.976Z,99680.42
2023-01-30T10:08:15.155Z,99669.84
2023-01-30T10:11:00.838Z,99667.13
2023-01-30T10:13:35.638Z,99660.29
2023-01-30T10:16:18.801Z,99656.28
2023-01-30T10:18:56.977Z,99651.31
2023-01-30T10:21:41.689Z,99641.63
2023-01-30T10:24:28.894Z,99636.04
2023-01-30T10:26:56.847Z,99628.30
2023-01-30T10:29:28.787Z,99624.05
2023-01-30T10:32:05.152Z,99615.62
2023-01-30T10:34:35.429Z,99613.23
2023-01-30T10:37:13.103Z,99613.06
2023-01-30T10:39:58.912Z,99601.04
2023-01-30T10:42:51.440Z,99597.15
2023-01-30T10:45:27.181Z,99589.08
2023-01-30T10:48:34.447Z,99587.89
2023-01-30T10:51:43.410Z,99574.38
2023-01-30T10:54:21.941Z,99571.23
2023-01-30T10:57:03.201Z,99566.59
2023-01-30T10:59:56.432Z,99559.09
2023-01-30T11:02:26.525Z,99555.78
2023-01-30T11:05:03.386Z,99549.36
2023-01-30T11:07:32.271Z,99543.64
2023-01-30T11:10:00.682Z,99538.63
2023-01-30T11:12:28.776Z,99535.44
2023-01-30T11:15:04.020Z,99533.92
2023-01-30T11:17:45.358Z,99528.39
2023-01-30T11:20:18.276Z,99520.89
2023-01-30T11:22:51.064Z,99519.90
2023-01-30T11:25:22.407Z,99519.10
2023-01-30T11:28:04.127Z,99510.50
2023-01-30T11:30:36.310Z,99505.20
2023-01-30T11:33:14.318Z,99505.09
2023-01-30T11:35:53.672Z,99494.36
2023-01-30T11:38:27.373Z,99485.81
2023-01-30T11:41:05.817Z,99478.90
2023-01-30T11:43:34.866Z,99469.33
2023-01-30T11:46:04.121Z,99463.20
2023-01-30T16:05:56.372Z,99268.00
2023-01-30T16:08:27.482Z,99267.96
2023-01-30T16:10:56.921Z,99264.72
2023-01-30T16:13:25.514Z,99269.02
2023-01-30T16:16:12.870Z,99266.06
2023-01-30T16:18:52.744Z,99264.24
2023-01-30T16:21:21.441Z,99261.77
2023-01-30T16:24:03.346Z,99259.23
2023-01-30T16:26:35.155Z,99260.48
2023-01-30T16:29:07.225Z,99259.24
2023-01-30T16:31:37.907Z,99256.08
2023-01-30T16:34:05.909Z,99256.65
2023-01-30T16:36:40.863Z,99252.23
2023-01-30T16:39:29.312Z,99250.52
2023-01-30T16:41:57.990Z,99244.77
2023-01-30T16:44:27.458Z,99243.27
2023-01-30T16:47:06.123Z,99246.05
2023-01-30T16:49:37.127Z,99243.59
2023-01-30T16:52:05.807Z,99247.01
2023-01-30T16:54:35.398Z,99242.77
2023-01-30T16:57:03.371Z,99243.20
2023-01-30T16:59:33.146Z,99243.23
2023-01-30T17:02:02.515Z,99243.45
2023-01-30T17:04:33.585Z,99245.34
2023-01-30T17:07:04.178Z,99246.16
2023-01-30T17:09:48.630Z,99240.77
2023-01-30T17:12:40.629Z,99235.70
2023-01-30T17:15:09.911Z,99230.64
2023-01-30T17:17:42.847Z,99232.02
2023-01-30T17:20:12.385Z,99229.27
2023-01-30T17:22:40.438Z,99229.58
2023-01-30T17:25:16.566Z,99228.05
2023-01-30T17:27:44.534Z,99230.69
2023-01-30T17:30:16.385Z,99227.75
2023-01-30T17:32:44.374Z,99228.63
2023-01-30T17:35:12.659Z,99228.64
2023-01-30T17:37:42.170Z,99227.52
2023-01-30T17:40:18.156Z,99222.05
2023-01-30T17:42:49.147Z,99219.30
2023-01-30T17:45:17.597Z,99216.75
2023-01-30T17:47:45.639Z,99216.02
2023-01-30T17:50:14.112Z,99214.82
2023-01-30T17:52:42.929Z,99214.31
2023-01-30T17:55:14.260Z,99210.63
2023-01-30T17:57:44.792Z,99212.59
2023-01-30T18:00:18.975Z,99210.52
2023-01-30T18:02:48.565Z,99215.11
2023-01-30T18:05:23.603Z,99215.00
2023-01-30T18:07:51.509Z,99215.30
2023-01-30T18:10:20.049Z,99215.70
2023-01-30T18:12:48.168Z,99213.13
2023-01-30T18:15:16.346Z,99214.70
2023-01-30T18:17:47.476Z,99217.85
2023-01-30T18:20:18.381Z,99213.05
2023-01-30T18:22:49.254Z,99213.39
2023-01-30T18:25:17.833Z,99210.88
2023-01-30T18:27:48.051Z,99203.98
2023-01-30T18:30:17.590Z,99204.16
2023-01-30T18:32:53.274Z,99203.70
2023-01-30T18:35:23.531Z,99203.94
2023-01-30T18:37:52.028Z,99202.72
2023-01-30T18:40:20.505Z,99204.34
2023-01-30T18:42:48.731Z,99204.15
2023-01-30T18:45:16.605Z,99199.30
2023-01-30T18:47:45.270Z,99198.77
2023-01-30T18:50:13.316Z,99199.16
2023-01-30T18:52:42.298Z,99196.27
2023-01-30T18:55:12.124Z,99195.42
2023-01-30T18:57:40.066Z,99194.85
2023-01-30T19:00:08.733Z,99193.41
2023-01-30T19:02:38.887Z,99189.81
2023-01-30T19:05:07.212Z,99185.67
2023-01-30T19:07:35.270Z,99179.95
2023-01-30T19:10:04.175Z,99177.45
2023-01-30T19:12:50.990Z,99184.20
2023-01-30T19:15:18.918Z,99186.80
2023-01-30T19:17:47.139Z,99182.08
2023-01-30T19:20:15.049Z,99184.11
2023-01-30T19:22:43.177Z,99177.98
2023-01-30T19:25:11.153Z,99175.20
2023-01-30T19:27:53.304Z,99173.98
2023-01-30T19:30:22.555Z,99174.30
2023-01-30T19:32:52.673Z,99167.55
2023-01-30T19:35:20.968Z,99169.77
2023-01-30T19:37:49.598Z,99170.37
2023-01-30T19:40:18.010Z,99166.11
2023-01-30T19:42:46.583Z,99167.14
